Time;durP1;ratioP1;P1;durP2;ratioP2;P2;SDS_P1;SDS_P2;PMS_P1;PMS_P2;Temp;Humidity;BMP_temperature;BMP_pressure;BME280_temperature;BME280_humidity;BME280_pressure;Samples;Min_cycle;Max_cycle;Signal;HPM_P1;HPM_P2
2022/01/07 00:00:16;;;;;;;16.27;4.30;;;-3.60;97.80;;;;;;5019650;28;20021;-68
2022/01/07 00:02:46;;;;;;;15.15;4.10;;;-3.60;97.80;;;;;;5030085;28;20026;-69
2022/01/07 00:05:13;;;;;;;13.15;4.07;;;-3.50;97.90;;;;;;5013616;28;20072;-69
2022/01/07 00:07:39;;;;;;;12.13;4.00;;;-3.40;97.80;;;;;;5036152;28;20033;-68
2022/01/07 00:10:07;;;;;;;10.45;3.25;;;-3.40;98.00;;;;;;5036662;28;20083;-68
2022/01/07 00:12:33;;;;;;;11.20;3.40;;;-3.40;98.00;;;;;;5037165;28;20022;-69
2022/01/07 00:14:58;;;;;;;7.20;3.60;;;-3.40;98.00;;;;;;5037124;28;20045;-69
2022/01/07 00:17:24;;;;;;;10.40;3.67;;;-3.40;98.00;;;;;;5035311;28;20038;-69
2022/01/07 00:19:49;;;;;;;16.05;3.88;;;-3.30;98.00;;;;;;5036528;28;20038;-68
2022/01/07 00:22:15;;;;;;;9.32;3.50;;;-3.30;98.00;;;;;;5037004;28;20064;-69
2022/01/07 00:24:41;;;;;;;16.27;4.53;;;-3.30;98.00;;;;;;5037244;28;20679;-69
2022/01/07 00:27:07;;;;;;;12.88;3.40;;;-3.30;98.00;;;;;;5035517;28;20044;-69
2022/01/07 00:29:33;;;;;;;9.20;3.47;;;-3.40;98.00;;;;;;5035841;28;20025;-69
2022/01/07 00:31:58;;;;;;;11.95;3.67;;;-3.40;98.00;;;;;;5030924;28;20037;-68
2022/01/07 00:34:27;;;;;;;11.82;5.13;;;-3.50;98.00;;;;;;5034963;28;20092;-68
2022/01/07 00:36:52;;;;;;;11.45;3.90;;;-3.60;98.00;;;;;;5033283;28;20068;-69
2022/01/07 00:39:18;;;;;;;12.23;3.83;;;-3.60;98.00;;;;;;5033511;28;20057;-67
2022/01/07 00:41:46;;;;;;;13.73;4.20;;;-3.60;97.90;;;;;;5036612;28;20029;-67
2022/01/07 00:44:12;;;;;;;12.35;3.97;;;-3.60;97.90;;;;;;5035264;28;20039;-67
2022/01/07 00:46:40;;;;;;;10.45;3.63;;;-3.60;97.90;;;;;;5030074;28;20026;-68
2022/01/07 00:49:06;;;;;;;14.38;4.82;;;-3.50;98.00;;;;;;5024290;28;20057;-67
2022/01/07 00:51:32;;;;;;;26.42;5.80;;;-3.60;98.00;;;;;;5026370;28;20414;-67
2022/01/07 00:53:58;;;;;;;17.77;5.65;;;-3.70;98.00;;;;;;5028857;28;20037;-67
2022/01/07 00:56:23;;;;;;;14.40;4.20;;;-3.90;98.00;;;;;;5031116;28;20061;-67
2022/01/07 00:58:50;;;;;;;10.32;5.10;;;-3.80;98.00;;;;;;5028728;28;20037;-66
2022/01/07 01:01:21;;;;;;;15.88;5.20;;;-3.90;98.00;;;;;;5034775;28;20101;-67
2022/01/07 01:03:47;;;;;;;9.38;4.28;;;-3.90;98.00;;;;;;5032366;28;20033;-68
2022/01/07 01:06:15;;;;;;;10.25;4.00;;;-3.90;98.00;;;;;;5026803;28;20033;-67
2022/01/07 01:08:47;;;;;;;8.38;4.03;;;-3.80;98.00;;;;;;5014128;28;20120;-68
2022/01/07 01:11:13;;;;;;;12.98;4.47;;;-3.70;98.00;;;;;;5032104;28;20415;-69
2022/01/07 01:13:39;;;;;;;14.05;3.63;;;-3.70;98.00;;;;;;5016345;28;20080;-68
2022/01/07 01:16:05;;;;;;;11.73;3.88;;;-3.70;98.00;;;;;;5028232;28;20060;-68
2022/01/07 01:18:30;;;;;;;12.57;3.88;;;-3.60;98.00;;;;;;5026513;28;20037;-68
2022/01/07 01:21:02;;;;;;;8.32;3.33;;;-3.50;98.00;;;;;;5029034;28;20107;-67
2022/01/07 01:23:29;;;;;;;7.70;3.63;;;-3.50;98.00;;;;;;5036081;28;20080;-67
2022/01/07 01:25:55;;;;;;;14.30;5.25;;;-3.60;98.00;;;;;;5034961;28;20057;-68
2022/01/07 01:28:20;;;;;;;9.23;3.35;;;-3.80;98.00;;;;;;5035571;28;20391;-68
2022/01/07 01:30:46;;;;;;;8.02;3.70;;;-3.70;98.00;;;;;;5034186;28;20029;-67
2022/01/07 01:33:12;;;;;;;9.73;4.72;;;-3.70;98.00;;;;;;5029173;28;21243;-68
2022/01/07 01:35:39;;;;;;;12.38;3.75;;;-3.70;98.00;;;;;;5028665;28;20033;-67
2022/01/07 01:38:08;;;;;;;10.52;4.10;;;-3.90;98.00;;;;;;5034431;28;20033;-68
2022/01/07 01:40:34;;;;;;;18.00;5.75;;;-3.90;98.00;;;;;;5032165;28;20732;-68
2022/01/07 01:43:01;;;;;;;7.63;3.38;;;-3.80;98.00;;;;;;5032161;28;20033;-67
2022/01/07 01:45:30;;;;;;;5.32;2.85;;;-3.80;98.00;;;;;;5033284;28;20056;-68
2022/01/07 01:47:56;;;;;;;11.77;3.63;;;-3.70;98.00;;;;;;5032868;28;20034;-67
2022/01/07 01:50:23;;;;;;;13.15;3.20;;;-3.60;98.00;;;;;;5035404;28;20137;-68
2022/01/07 01:52:56;;;;;;;11.45;3.67;;;-3.60;98.00;;;;;;5016821;28;20377;-68
2022/01/07 01:55:24;;;;;;;11.38;4.15;;;-3.70;98.00;;;;;;5034930;28;20049;-68
2022/01/07 01:57:52;;;;;;;9.45;3.58;;;-3.60;98.00;;;;;;5033650;28;20494;-68
2022/01/07 02:00:20;;;;;;;8.25;3.28;;;-3.70;98.00;;;;;;5033618;28;20037;-68
2022/01/07 02:02:48;;;;;;;8.95;4.13;;;-3.70;98.00;;;;;;5016055;28;20117;-68
2022/01/07 02:05:15;;;;;;;12.15;3.83;;;-3.70;98.00;;;;;;5034759;28;20104;-67
2022/01/07 02:07:41;;;;;;;13.38;5.05;;;-3.70;98.00;;;;;;5033100;28;20021;-68
2022/01/07 02:10:13;;;;;;;15.10;4.90;;;-3.80;98.00;;;;;;5017787;28;20021;-67
2022/01/07 02:12:40;;;;;;;13.57;4.85;;;-3.90;98.00;;;;;;5030529;28;20026;-67
2022/01/07 02:15:08;;;;;;;15.98;5.63;;;-3.90;98.00;;;;;;5015345;28;20026;-68
2022/01/07 02:17:41;;;;;;;11.93;5.32;;;-4.00;98.00;;;;;;5029981;28;20033;-68
2022/01/07 02:20:07;;;;;;;13.45;5.45;;;-3.90;98.00;;;;;;5029958;28;20033;-67
2022/01/07 02:22:33;;;;;;;10.32;4.18;;;-3.90;98.00;;;;;;5033416;28;20063;-68
2022/01/07 02:24:59;;;;;;;9.75;3.28;;;-3.90;98.00;;;;;;5031870;28;20040;-68
2022/01/07 02:27:25;;;;;;;10.88;3.75;;;-3.80;98.00;;;;;;5030259;28;20175;-68
2022/01/07 02:29:51;;;;;;;7.82;3.15;;;-3.70;98.00;;;;;;5033263;28;20057;-68
2022/01/07 02:32:18;;;;;;;7.82;3.38;;;-3.60;98.00;;;;;;5019595;28;20066;-68
2022/01/07 02:34:45;;;;;;;10.18;4.00;;;-3.60;98.00;;;;;;5031516;28;20040;-67
2022/01/07 02:37:12;;;;;;;12.38;5.20;;;-3.60;98.00;;;;;;5030636;28;20039;-69
2022/01/07 02:39:39;;;;;;;9.68;4.60;;;-3.60;98.00;;;;;;5016382;28;20152;-69
2022/01/07 02:42:05;;;;;;;12.23;5.50;;;-3.80;98.00;;;;;;5024377;28;20041;-69
2022/01/07 02:44:31;;;;;;;10.15;5.22;;;-3.90;98.00;;;;;;5028773;28;20033;-68
2022/01/07 02:46:56;;;;;;;12.48;5.45;;;-4.00;98.00;;;;;;5024052;28;20033;-69
2022/01/07 02:49:22;;;;;;;12.15;5.20;;;-4.10;98.00;;;;;;5026175;28;20044;-69
2022/01/07 02:51:48;;;;;;;11.93;6.03;;;-4.10;98.00;;;;;;5027613;28;20026;-69
2022/01/07 02:54:14;;;;;;;10.48;4.90;;;-4.20;98.00;;;;;;5030707;28;20056;-69
2022/01/07 02:56:41;;;;;;;9.68;4.85;;;-4.20;98.00;;;;;;5034114;28;20032;-69
2022/01/07 02:59:08;;;;;;;12.68;5.47;;;-4.10;98.00;;;;;;5028478;28;20098;-69
2022/01/07 03:01:35;;;;;;;10.80;5.55;;;-4.10;98.00;;;;;;5028778;28;20026;-69
2022/01/07 03:04:02;;;;;;;12.65;4.70;;;-4.10;98.00;;;;;;5030571;28;20030;-68
2022/01/07 03:06:28;;;;;;;9.65;5.97;;;-4.10;98.00;;;;;;5028434;28;20029;-69
2022/01/07 03:08:54;;;;;;;17.52;6.55;;;-4.20;98.00;;;;;;5016734;28;20103;-69
2022/01/07 03:11:21;;;;;;;13.10;4.72;;;-4.20;98.00;;;;;;5033407;28;20026;-69
2022/01/07 03:13:46;;;;;;;12.68;5.30;;;-4.20;98.00;;;;;;5032859;28;20040;-69
2022/01/07 03:16:12;;;;;;;12.80;5.25;;;-4.30;98.00;;;;;;5032519;28;20026;-69
2022/01/07 03:18:38;;;;;;;12.65;6.22;;;-4.40;98.00;;;;;;5031987;28;20109;-69
2022/01/07 03:21:04;;;;;;;14.02;6.05;;;-4.50;98.00;;;;;;5033329;28;20117;-69
2022/01/07 03:23:31;;;;;;;11.85;6.18;;;-4.60;98.00;;;;;;5033346;28;20109;-69
2022/01/07 03:25:57;;;;;;;11.25;6.15;;;-4.60;98.00;;;;;;5032765;28;20057;-69
2022/01/07 03:28:22;;;;;;;13.27;6.68;;;-4.70;98.00;;;;;;5036124;28;20064;-69
2022/01/07 03:30:49;;;;;;;13.98;8.68;;;-4.80;98.00;;;;;;5037367;28;20021;-69
2022/01/07 03:33:15;;;;;;;15.52;8.18;;;-4.90;98.00;;;;;;5035973;28;20053;-69
2022/01/07 03:35:43;;;;;;;16.83;7.50;;;-4.90;98.00;;;;;;5035649;28;20037;-68
2022/01/07 03:38:09;;;;;;;15.57;8.27;;;-4.90;98.00;;;;;;5032313;28;20017;-68
2022/01/07 03:40:35;;;;;;;14.85;7.63;;;-4.90;98.00;;;;;;5036910;28;20021;-68
2022/01/07 03:43:01;;;;;;;13.00;7.88;;;-4.90;98.00;;;;;;5035432;28;20032;-69
2022/01/07 03:45:27;;;;;;;12.85;7.00;;;-4.90;98.00;;;;;;5037364;28;20032;-68
2022/01/07 03:47:53;;;;;;;15.68;8.05;;;-4.90;98.00;;;;;;5034159;28;20033;-67
2022/01/07 03:50:22;;;;;;;17.10;8.25;;;-4.90;98.00;;;;;;5034405;28;20108;-66
2022/01/07 03:52:49;;;;;;;16.75;7.93;;;-4.90;98.00;;;;;;5037147;28;20227;-67
2022/01/07 03:55:17;;;;;;;14.60;7.10;;;-4.90;98.00;;;;;;5034663;28;20328;-67
2022/01/07 03:57:43;;;;;;;13.32;6.82;;;-4.90;98.00;;;;;;5036615;28;20113;-68
2022/01/07 04:00:13;;;;;;;14.05;6.65;;;-4.90;98.00;;;;;;5034630;28;20141;-69
2022/01/07 04:02:41;;;;;;;12.13;6.10;;;-4.80;98.00;;;;;;5035969;28;20014;-69
2022/01/07 04:05:08;;;;;;;11.93;6.38;;;-4.80;98.00;;;;;;5034119;28;20018;-69
2022/01/07 04:07:33;;;;;;;12.23;6.63;;;-4.90;98.00;;;;;;5029948;28;20092;-69
2022/01/07 04:09:59;;;;;;;12.05;6.45;;;-4.90;98.00;;;;;;5036343;28;20185;-69
2022/01/07 04:12:26;;;;;;;12.55;6.38;;;-4.90;98.00;;;;;;5034365;28;20025;-69
2022/01/07 04:15:02;;;;;;;13.90;6.60;;;-4.80;98.00;;;;;;5032614;28;20503;-68
2022/01/07 04:17:28;;;;;;;12.52;6.28;;;-4.80;98.00;;;;;;5033865;28;20029;-69
2022/01/07 04:19:54;;;;;;;13.88;6.55;;;-4.90;98.00;;;;;;5036037;28;20029;-68
2022/01/07 04:22:22;;;;;;;12.95;6.22;;;-4.80;98.00;;;;;;5034875;28;20051;-69
2022/01/07 04:24:48;;;;;;;11.93;6.68;;;-4.70;98.00;;;;;;5036303;28;20026;-69
2022/01/07 04:27:13;;;;;;;11.95;6.28;;;-4.70;98.00;;;;;;5032992;28;20051;-69
2022/01/07 04:29:39;;;;;;;13.13;7.15;;;-4.60;98.00;;;;;;5031592;28;20036;-68
2022/01/07 04:32:06;;;;;;;13.18;7.13;;;-4.60;98.00;;;;;;5016838;28;20037;-68
2022/01/07 04:34:32;;;;;;;12.02;6.32;;;-4.60;98.00;;;;;;5034593;28;20075;-68
2022/01/07 04:36:58;;;;;;;16.60;7.30;;;-4.50;98.00;;;;;;5034608;28;20041;-67
2022/01/07 04:39:23;;;;;;;13.98;7.55;;;-4.50;98.00;;;;;;5034368;28;20361;-68
2022/01/07 04:41:49;;;;;;;14.95;7.78;;;-4.40;98.00;;;;;;5035883;28;20386;-68
2022/01/07 04:44:15;;;;;;;14.05;7.05;;;-4.40;98.00;;;;;;5036194;28;20105;-69
2022/01/07 04:46:41;;;;;;;17.33;8.00;;;-4.40;98.00;;;;;;5036473;28;20067;-67
2022/01/07 04:49:07;;;;;;;15.25;8.68;;;-4.40;98.00;;;;;;5031618;28;20663;-69
2022/01/07 04:51:32;;;;;;;14.73;8.35;;;-4.30;98.00;;;;;;5024513;28;20030;-69
2022/01/07 04:53:58;;;;;;;17.27;8.30;;;-4.20;98.00;;;;;;5034782;28;20049;-69
2022/01/07 04:56:24;;;;;;;20.08;9.43;;;-4.20;98.00;;;;;;5032225;28;20041;-69
2022/01/07 04:58:49;;;;;;;21.85;8.88;;;-4.20;98.00;;;;;;5034941;28;20033;-69
2022/01/07 05:01:18;;;;;;;17.65;10.02;;;-4.10;98.00;;;;;;5018557;28;20426;-69
2022/01/07 05:03:43;;;;;;;26.23;13.35;;;-4.10;98.00;;;;;;5033102;28;20082;-68
2022/01/07 05:08:52;;;;;;;22.80;13.32;;;-4.00;98.00;;;;;;5031191;28;20044;-68
2022/01/07 05:11:19;;;;;;;19.38;10.82;;;-4.00;98.00;;;;;;5034652;28;20025;-69
2022/01/07 05:13:45;;;;;;;21.90;11.40;;;-4.00;98.00;;;;;;5030982;28;20025;-69
2022/01/07 05:16:10;;;;;;;16.27;8.85;;;-3.90;98.00;;;;;;5029818;28;20036;-69
2022/01/07 05:18:36;;;;;;;21.48;11.20;;;-3.70;98.00;;;;;;5028650;28;20045;-68
2022/01/07 05:21:02;;;;;;;16.80;9.68;;;-3.60;98.00;;;;;;5032925;28;20087;-69
2022/01/07 05:23:27;;;;;;;16.08;9.13;;;-3.50;98.00;;;;;;5034570;28;20048;-68
2022/01/07 05:25:53;;;;;;;16.80;9.13;;;-3.40;98.00;;;;;;5031917;28;20453;-69
2022/01/07 05:28:18;;;;;;;15.05;8.80;;;-3.30;98.00;;;;;;5031256;28;20456;-68
2022/01/07 05:30:44;;;;;;;17.70;9.32;;;-3.40;98.00;;;;;;5030925;28;20021;-68
2022/01/07 05:33:10;;;;;;;19.17;10.20;;;-3.50;98.00;;;;;;5013636;28;20029;-68
2022/01/07 05:35:35;;;;;;;18.45;9.50;;;-3.70;98.00;;;;;;5031972;28;20067;-68
2022/01/07 05:38:01;;;;;;;18.85;9.68;;;-3.80;98.00;;;;;;5030727;28;20021;-69
2022/01/07 05:40:27;;;;;;;23.92;12.95;;;-4.00;98.00;;;;;;5032290;28;20026;-68
2022/01/07 05:42:52;;;;;;;19.90;11.25;;;-4.20;98.00;;;;;;5031996;28;20029;-69
2022/01/07 05:45:18;;;;;;;16.98;9.73;;;-4.30;98.00;;;;;;5035574;28;20030;-69
2022/01/07 05:47:43;;;;;;;21.35;11.70;;;-4.20;98.00;;;;;;5029689;28;20029;-70
2022/01/07 05:50:10;;;;;;;16.30;10.02;;;-4.20;98.00;;;;;;5032106;28;20036;-69
2022/01/07 05:52:36;;;;;;;17.35;9.80;;;-4.00;98.00;;;;;;5030109;28;20189;-68
2022/01/07 05:55:02;;;;;;;19.65;10.65;;;-3.90;98.00;;;;;;5028721;28;20176;-69
2022/01/07 05:57:44;;;;;;;16.48;10.05;;;-3.80;98.00;;;;;;5029430;28;20029;-68
2022/01/07 06:00:14;;;;;;;16.90;9.82;;;-3.70;98.00;;;;;;5029023;28;20025;-68
2022/01/07 06:02:40;;;;;;;16.15;9.32;;;-3.60;98.00;;;;;;5027945;28;20028;-69
2022/01/07 06:05:06;;;;;;;16.55;8.90;;;-3.50;98.00;;;;;;5031080;28;20021;-68
2022/01/07 06:07:32;;;;;;;16.02;9.15;;;-3.40;98.00;;;;;;5031343;28;20105;-68
2022/01/07 06:09:58;;;;;;;15.18;9.55;;;-3.30;98.00;;;;;;5030941;28;20083;-70
2022/01/07 06:12:26;;;;;;;15.55;9.07;;;-3.30;98.00;;;;;;5028283;28;20034;-69
2022/01/07 06:14:52;;;;;;;17.40;9.93;;;-3.20;98.00;;;;;;5024023;28;20066;-69
2022/01/07 06:17:18;;;;;;;19.85;11.65;;;-3.10;98.00;;;;;;5028507;28;20053;-69
2022/01/07 06:19:44;;;;;;;29.20;13.98;;;-3.00;98.00;;;;;;5031083;28;20033;-69
2022/01/07 06:22:10;;;;;;;39.25;19.75;;;-3.00;98.00;;;;;;5025274;28;20128;-68
2022/01/07 06:24:36;;;;;;;15.13;8.02;;;-2.90;98.00;;;;;;5030532;28;20040;-69
2022/01/07 06:27:01;;;;;;;13.50;8.32;;;-2.80;98.00;;;;;;5031135;28;20025;-69
2022/01/07 06:29:27;;;;;;;16.67;8.68;;;-2.70;98.00;;;;;;5027846;28;20318;-69
2022/01/07 06:31:56;;;;;;;17.88;9.38;;;-2.70;98.00;;;;;;5031532;28;20322;-68
2022/01/07 06:34:23;;;;;;;15.70;8.52;;;-2.70;98.00;;;;;;5025900;28;20104;-69
2022/01/07 06:36:49;;;;;;;16.58;9.32;;;-2.70;98.00;;;;;;5029584;28;20044;-70
2022/01/07 06:39:22;;;;;;;13.38;8.63;;;-2.70;98.00;;;;;;5029804;28;20061;-69
2022/01/07 06:41:50;;;;;;;14.85;7.75;;;-2.50;98.00;;;;;;5031354;28;20024;-68
2022/01/07 06:44:16;;;;;;;18.35;10.07;;;-2.50;98.00;;;;;;5014013;28;20021;-70
2022/01/07 06:46:41;;;;;;;16.25;8.52;;;-2.40;98.00;;;;;;5033739;28;20437;-69
2022/01/07 06:49:07;;;;;;;15.13;8.48;;;-2.40;98.00;;;;;;5011920;28;20041;-68
2022/01/07 06:51:35;;;;;;;18.17;9.18;;;-2.30;98.00;;;;;;5028455;28;20029;-70
2022/01/07 06:54:01;;;;;;;14.48;8.73;;;-2.30;98.00;;;;;;5031416;28;20025;-69
2022/01/07 06:56:28;;;;;;;19.17;9.18;;;-2.30;98.00;;;;;;5029750;28;20052;-69
2022/01/07 06:58:54;;;;;;;16.67;8.38;;;-2.40;98.00;;;;;;5011712;28;20122;-69
2022/01/07 07:01:22;;;;;;;18.45;8.75;;;-2.30;98.00;;;;;;5028730;28;20604;-69
2022/01/07 07:03:48;;;;;;;14.40;7.75;;;-2.30;98.00;;;;;;5030055;28;20330;-69
2022/01/07 07:06:13;;;;;;;15.45;8.30;;;-2.30;98.00;;;;;;5029742;28;20033;-69
2022/01/07 07:08:39;;;;;;;13.77;8.38;;;-2.30;98.00;;;;;;5034751;28;20025;-69
2022/01/07 07:11:06;;;;;;;12.65;7.40;;;-2.30;98.00;;;;;;5028894;28;20057;-69
2022/01/07 07:13:32;;;;;;;14.13;7.28;;;-2.30;98.00;;;;;;5034982;28;20053;-69
2022/01/07 07:15:58;;;;;;;16.10;8.02;;;-2.10;98.00;;;;;;5034165;28;20049;-69
2022/01/07 07:18:23;;;;;;;16.05;8.80;;;-2.10;98.00;;;;;;5033066;28;20606;-69
2022/01/07 07:20:49;;;;;;;18.27;9.38;;;-2.10;98.00;;;;;;5034302;28;20474;-68
2022/01/07 07:23:15;;;;;;;15.13;9.45;;;-2.10;98.00;;;;;;5034387;28;20418;-68
2022/01/07 07:25:40;;;;;;;15.55;8.60;;;-2.20;98.00;;;;;;5030807;28;20036;-68
2022/01/07 07:28:06;;;;;;;11.82;7.63;;;-2.10;98.00;;;;;;5033676;28;20036;-70
2022/01/07 07:30:38;;;;;;;14.95;8.30;;;-2.10;98.00;;;;;;5034317;28;20021;-68
2022/01/07 07:38:33;;;;;;;14.55;9.02;;;-2.10;98.00;;;;;;5033448;28;19951;-69
2022/01/07 07:40:58;;;;;;;16.10;9.10;;;-2.10;98.00;;;;;;5013437;28;20049;-69
2022/01/07 07:43:24;;;;;;;15.35;9.65;;;-2.00;98.00;;;;;;5032135;28;20068;-69
2022/01/07 07:45:49;;;;;;;16.00;9.65;;;-1.90;98.00;;;;;;5036562;28;20406;-69
2022/01/07 07:48:15;;;;;;;19.95;10.95;;;-1.90;98.00;;;;;;5031012;28;20417;-69
2022/01/07 07:50:41;;;;;;;70.57;30.77;;;-1.90;98.00;;;;;;5033939;28;20084;-70
2022/01/07 07:53:06;;;;;;;16.92;10.30;;;-1.80;98.00;;;;;;5037371;28;20104;-69
2022/01/07 07:55:33;;;;;;;13.77;8.25;;;-1.70;98.00;;;;;;5036764;28;20387;-69
2022/01/07 07:57:58;;;;;;;14.85;8.45;;;-1.70;98.00;;;;;;5038065;28;20097;-69
2022/01/07 08:00:24;;;;;;;15.60;7.85;;;-1.60;98.00;;;;;;5038080;28;20096;-69
2022/01/07 08:02:49;;;;;;;13.02;7.82;;;-1.60;98.00;;;;;;5036695;28;20441;-69
2022/01/07 08:05:15;;;;;;;13.98;8.13;;;-1.50;98.00;;;;;;5038124;28;20052;-69
2022/01/07 08:07:41;;;;;;;14.88;7.75;;;-1.40;98.00;;;;;;5038696;28;20079;-70
2022/01/07 08:10:07;;;;;;;12.43;8.20;;;-1.40;98.00;;;;;;5036570;28;20095;-70
2022/01/07 08:12:53;;;;;;;14.82;8.40;;;-1.40;98.00;;;;;;5037933;28;20025;-69
2022/01/07 08:18:04;;;;;;;13.77;7.65;;;-1.40;98.00;;;;;;5036185;28;20083;-70
2022/01/07 08:20:31;;;;;;;16.05;8.13;;;-1.30;98.00;;;;;;5035711;28;20021;-70
2022/01/07 08:22:59;;;;;;;14.52;8.45;;;-1.20;98.00;;;;;;5038262;28;20026;-70
2022/01/07 08:25:25;;;;;;;12.73;7.75;;;-1.20;98.00;;;;;;5036157;28;20287;-69
2022/01/07 08:27:51;;;;;;;13.00;7.53;;;-1.10;98.00;;;;;;5037813;28;20057;-69
2022/01/07 08:30:24;;;;;;;13.07;7.55;;;-1.10;98.00;;;;;;5038020;28;20056;-70
2022/01/07 08:35:37;;;;;;;10.82;7.25;;;-0.90;98.00;;;;;;5037187;28;20389;-70
2022/01/07 08:38:03;;;;;;;14.27;7.47;;;-0.80;98.00;;;;;;5018255;28;20422;-70
2022/01/07 08:40:29;;;;;;;17.70;9.38;;;-0.70;98.00;;;;;;5028535;28;20029;-69
2022/01/07 08:42:55;;;;;;;24.45;12.63;;;-0.60;98.00;;;;;;5037699;28;20380;-70
2022/01/07 08:45:21;;;;;;;12.88;7.40;;;-0.60;98.00;;;;;;5037221;28;20018;-69
2022/01/07 08:47:47;;;;;;;14.98;7.80;;;-0.50;97.20;;;;;;5036414;28;20326;-69
2022/01/07 08:50:12;;;;;;;10.05;5.47;;;-0.40;97.50;;;;;;5037680;28;20030;-69
2022/01/07 08:52:38;;;;;;;14.27;6.72;;;-0.40;96.80;;;;;;5036990;28;20495;-70
2022/01/07 08:55:04;;;;;;;9.70;5.38;;;-0.30;97.00;;;;;;5035819;28;20066;-69
2022/01/07 08:57:30;;;;;;;11.32;6.18;;;-0.30;96.80;;;;;;5037169;28;20059;-69
2022/01/07 08:59:56;;;;;;;10.65;5.72;;;-0.20;96.30;;;;;;5036662;28;20029;-69
2022/01/07 09:02:24;;;;;;;10.20;5.50;;;-0.20;96.50;;;;;;5035876;28;20029;-69
2022/01/07 09:04:50;;;;;;;9.00;5.35;;;-0.10;96.40;;;;;;5037199;28;20030;-69
2022/01/07 09:07:16;;;;;;;11.38;5.88;;;-0.10;95.70;;;;;;5035271;28;20037;-69
2022/01/07 09:09:41;;;;;;;10.05;5.55;;;0.00;95.40;;;;;;5037179;28;20369;-69
2022/01/07 09:12:08;;;;;;;9.77;5.75;;;0.10;95.00;;;;;;5037147;28;20025;-69
2022/01/07 09:14:36;;;;;;;11.25;4.88;;;0.10;95.40;;;;;;5036372;28;20102;-69
2022/01/07 09:17:02;;;;;;;9.57;4.75;;;0.20;93.90;;;;;;5010972;28;20403;-68
2022/01/07 09:19:31;;;;;;;9.35;4.32;;;0.30;93.50;;;;;;5037279;28;20060;-68
2022/01/07 09:21:57;;;;;;;7.97;4.32;;;0.40;93.30;;;;;;5016896;28;20055;-68
2022/01/07 09:24:23;;;;;;;7.75;4.50;;;0.50;93.10;;;;;;5034547;28;20022;-68
2022/01/07 09:26:48;;;;;;;7.03;4.13;;;0.50;91.40;;;;;;5035646;28;20079;-67
2022/01/07 09:29:14;;;;;;;9.10;4.65;;;0.50;91.40;;;;;;5036826;28;20033;-70
2022/01/07 09:31:40;;;;;;;9.95;5.00;;;0.60;91.40;;;;;;5035305;28;20057;-69
2022/01/07 09:34:06;;;;;;;8.82;5.05;;;0.70;91.00;;;;;;5035236;28;20067;-69
2022/01/07 09:36:32;;;;;;;6.65;4.20;;;0.70;91.40;;;;;;5035311;28;20037;-69
2022/01/07 09:38:58;;;;;;;8.13;4.50;;;0.80;90.20;;;;;;5035647;28;20033;-70
2022/01/07 09:41:25;;;;;;;8.48;4.80;;;0.80;90.80;;;;;;5036792;28;20035;-69
2022/01/07 09:43:53;;;;;;;7.55;4.70;;;0.80;90.80;;;;;;5036207;28;20489;-69
2022/01/07 09:46:19;;;;;;;8.93;4.47;;;0.80;90.70;;;;;;5035322;28;20025;-69
2022/01/07 09:48:45;;;;;;;10.23;4.88;;;0.90;91.50;;;;;;5034472;28;20028;-69
2022/01/07 09:51:14;;;;;;;8.70;5.13;;;0.90;91.50;;;;;;5034349;28;20406;-69
2022/01/07 09:53:40;;;;;;;11.02;5.43;;;0.80;92.30;;;;;;5036492;28;20052;-68
2022/01/07 09:56:08;;;;;;;10.02;4.95;;;0.80;92.30;;;;;;5030440;28;20432;-69
2022/01/07 09:58:35;;;;;;;8.50;5.13;;;0.80;91.60;;;;;;5034954;28;20061;-69
2022/01/07 10:01:03;;;;;;;7.57;4.47;;;0.80;92.20;;;;;;5036242;28;20119;-70
2022/01/07 10:03:37;;;;;;;10.40;5.10;;;0.80;91.60;;;;;;5034533;28;20068;-69
2022/01/07 10:06:22;;;;;;;9.13;5.82;;;0.90;90.80;;;;;;5035838;28;20116;-70
2022/01/07 10:09:03;;;;;;;10.85;6.13;;;0.80;91.30;;;;;;5034365;28;20021;-70
2022/01/07 10:11:28;;;;;;;8.50;4.93;;;0.70;91.60;;;;;;5036273;28;20033;-71
2022/01/07 10:14:22;;;;;;;8.98;5.10;;;0.80;90.80;;;;;;5035135;28;20041;-71
2022/01/07 10:16:59;;;;;;;8.13;4.75;;;0.80;90.80;;;;;;5032794;28;20124;-71
2022/01/07 10:19:53;;;;;;;8.52;4.78;;;0.80;91.20;;;;;;5033814;28;20453;-70
2022/01/07 10:22:18;;;;;;;9.13;5.40;;;0.80;90.90;;;;;;5013997;28;20037;-70
2022/01/07 10:24:55;;;;;;;10.50;4.50;;;0.80;90.70;;;;;;5034947;28;20272;-69
2022/01/07 10:27:22;;;;;;;11.15;5.18;;;0.70;90.90;;;;;;5035412;28;20033;-70
2022/01/07 10:29:48;;;;;;;9.05;5.13;;;0.70;91.40;;;;;;5035306;28;20021;-69
2022/01/07 10:32:23;;;;;;;8.25;4.90;;;0.70;91.00;;;;;;5034427;28;20064;-70
2022/01/07 10:35:03;;;;;;;9.45;5.45;;;0.70;92.00;;;;;;5035669;28;20025;-70
2022/01/07 10:37:29;;;;;;;9.93;5.95;;;0.70;92.20;;;;;;5034034;28;20032;-70
2022/01/07 10:39:55;;;;;;;10.80;5.50;;;0.80;92.80;;;;;;5034625;28;20033;-70
2022/01/07 10:42:27;;;;;;;9.50;5.15;;;0.80;92.40;;;;;;5035759;28;20445;-70
2022/01/07 10:45:04;;;;;;;9.65;5.10;;;0.70;93.10;;;;;;5035862;28;20104;-70
2022/01/07 10:47:30;;;;;;;12.98;6.00;;;0.70;93.50;;;;;;5016953;28;20029;-70
2022/01/07 10:50:24;;;;;;;9.60;5.07;;;0.70;93.40;;;;;;5035542;28;20028;-70
2022/01/07 10:52:51;;;;;;;8.35;5.53;;;0.70;93.30;;;;;;5018168;28;20036;-70
2022/01/07 10:55:20;;;;;;;8.90;5.30;;;0.60;93.80;;;;;;5035867;28;20040;-69
2022/01/07 10:57:48;;;;;;;9.32;5.13;;;0.50;94.90;;;;;;5035107;28;20148;-69
2022/01/07 11:00:19;;;;;;;7.15;4.97;;;0.50;95.80;;;;;;5034638;28;20022;-70
2022/01/07 11:02:46;;;;;;;9.82;4.95;;;0.50;96.40;;;;;;5034638;28;20024;-69
2022/01/07 11:05:13;;;;;;;8.38;4.95;;;0.50;96.50;;;;;;5017946;28;20052;-69
2022/01/07 11:07:38;;;;;;;9.75;5.38;;;0.50;96.00;;;;;;5034924;28;20028;-70
2022/01/07 11:10:07;;;;;;;8.40;5.20;;;0.50;95.70;;;;;;5034267;28;20029;-70
2022/01/07 11:12:33;;;;;;;10.60;6.20;;;0.60;96.30;;;;;;5035449;28;20033;-70
2022/01/07 11:14:59;;;;;;;20.95;12.40;;;0.60;95.80;;;;;;5032516;28;20022;-70
2022/01/07 11:17:26;;;;;;;8.18;4.50;;;0.70;96.20;;;;;;5034034;28;20334;-70
2022/01/07 11:19:55;;;;;;;9.85;6.15;;;0.70;95.60;;;;;;5035544;28;20414;-70
2022/01/07 11:22:22;;;;;;;10.38;7.40;;;0.80;95.30;;;;;;5035463;28;20045;-70
2022/01/07 11:24:54;;;;;;;10.57;5.75;;;0.70;95.50;;;;;;5035221;28;20109;-70
2022/01/07 11:27:28;;;;;;;8.02;4.57;;;0.70;96.10;;;;;;5035176;28;20022;-69
2022/01/07 11:30:17;;;;;;;6.43;4.45;;;0.70;96.10;;;;;;5021299;28;20080;-70
2022/01/07 11:32:52;;;;;;;8.23;4.20;;;0.70;96.90;;;;;;5033970;28;20287;-70
2022/01/07 11:35:21;;;;;;;7.78;4.72;;;0.80;97.20;;;;;;5034927;28;20083;-70
2022/01/07 11:38:00;;;;;;;7.97;4.68;;;0.80;96.60;;;;;;5034573;28;20033;-69
2022/01/07 11:40:31;;;;;;;8.70;4.50;;;0.80;96.60;;;;;;5034221;28;20490;-70
2022/01/07 11:43:00;;;;;;;9.10;4.20;;;0.70;96.90;;;;;;5015605;28;20018;-70
2022/01/07 11:45:38;;;;;;;8.70;4.93;;;0.70;97.00;;;;;;5015688;28;20427;-70
2022/01/07 11:48:27;;;;;;;15.13;6.57;;;0.60;97.30;;;;;;5033930;28;20041;-70
2022/01/07 11:50:55;;;;;;;9.63;5.38;;;0.70;97.50;;;;;;5037754;28;20091;-70
2022/01/07 11:53:50;;;;;;;10.60;5.00;;;0.70;97.70;;;;;;5037261;28;20071;-70
2022/01/07 11:56:16;;;;;;;9.77;5.45;;;0.70;98.00;;;;;;5023002;28;20029;-70
2022/01/07 11:58:56;;;;;;;10.25;5.38;;;0.70;98.00;;;;;;5019799;28;20430;-68
2022/01/07 12:01:35;;;;;;;10.63;5.93;;;0.80;98.00;;;;;;5038269;28;20032;-70
2022/01/07 12:04:13;;;;;;;12.18;6.40;;;0.90;98.00;;;;;;5032699;28;20496;-70
2022/01/07 12:06:39;;;;;;;11.20;5.68;;;1.00;98.00;;;;;;5034155;28;20421;-69
2022/01/07 12:09:37;;;;;;;9.55;5.57;;;1.00;98.00;;;;;;5029861;28;20109;-70
2022/01/07 12:12:06;;;;;;;9.77;5.63;;;1.00;98.00;;;;;;5033743;28;20433;-69
2022/01/07 12:14:40;;;;;;;10.52;5.15;;;0.90;98.00;;;;;;5037080;28;20076;-69
2022/01/07 12:17:13;;;;;;;7.78;5.00;;;1.00;98.00;;;;;;5035642;28;20024;-68
2022/01/07 12:19:52;;;;;;;7.47;4.35;;;1.10;98.00;;;;;;5033767;28;20030;-69
2022/01/07 12:22:20;;;;;;;8.40;4.50;;;1.20;97.80;;;;;;5038154;28;20065;-68
2022/01/07 12:24:47;;;;;;;8.60;5.40;;;1.40;97.40;;;;;;5037360;28;20080;-70
2022/01/07 12:27:19;;;;;;;9.32;4.30;;;1.50;97.50;;;;;;5037534;28;20152;-71
2022/01/07 12:29:50;;;;;;;8.80;5.35;;;1.60;96.70;;;;;;5037076;28;20104;-71
2022/01/07 12:32:18;;;;;;;9.20;4.85;;;1.70;96.90;;;;;;5037059;28;20025;-70
2022/01/07 12:34:47;;;;;;;10.40;6.03;;;1.80;96.20;;;;;;5036755;28;20330;-70
2022/01/07 12:37:15;;;;;;;12.00;5.43;;;2.00;96.50;;;;;;5036594;28;20040;-71
2022/01/07 12:39:50;;;;;;;11.10;5.78;;;2.00;96.20;;;;;;5019931;28;20021;-71
2022/01/07 12:42:16;;;;;;;9.27;4.97;;;2.00;96.00;;;;;;5033322;28;20022;-69
2022/01/07 12:44:46;;;;;;;8.63;4.07;;;1.90;95.50;;;;;;5036202;28;20032;-70
2022/01/07 12:47:14;;;;;;;7.10;3.92;;;1.70;95.60;;;;;;5031724;28;20021;-70
2022/01/07 12:49:49;;;;;;;8.98;3.72;;;1.60;95.80;;;;;;5035291;28;20026;-70
2022/01/07 12:52:25;;;;;;;7.70;4.00;;;1.70;96.20;;;;;;5028279;28;20035;-70
2022/01/07 12:55:16;;;;;;;7.60;4.07;;;1.90;95.60;;;;;;5036210;28;20044;-70
2022/01/07 12:57:52;;;;;;;7.05;3.95;;;1.90;95.10;;;;;;5033110;28;20022;-70
2022/01/07 13:00:26;;;;;;;6.38;3.42;;;2.00;95.30;;;;;;5029319;28;20354;-69